sensor_id;sensor_type;location;lat;lon;timestamp;temperature;humidity
578;DHT22;275;48.492;9.214;2024-03-29T00:02:17;10.40;18.80
578;DHT22;275;48.492;9.214;2024-03-29T00:04:43;10.60;18.50
578;DHT22;275;48.492;9.214;2024-03-29T00:07:09;10.70;18.20
578;DHT22;275;48.492;9.214;2024-03-29T00:09:35;10.60;18.20
578;DHT22;275;48.492;9.214;2024-03-29T00:12:01;10.70;18.10
578;DHT22;275;48.492;9.214;2024-03-29T00:14:27;10.60;17.60
578;DHT22;275;48.492;9.214;2024-03-29T00:16:52;10.80;17.60
578;DHT22;275;48.492;9.214;2024-03-29T00:19:20;10.90;17.80
578;DHT22;275;48.492;9.214;2024-03-29T00:21:46;10.80;17.80
578;DHT22;275;48.492;9.214;2024-03-29T00:24:12;10.50;17.80
578;DHT22;275;48.492;9.214;2024-03-29T00:26:38;10.60;17.70
578;DHT22;275;48.492;9.214;2024-03-29T00:29:04;10.80;17.40
578;DHT22;275;48.492;9.214;2024-03-29T00:31:29;10.70;17.80
578;DHT22;275;48.492;9.214;2024-03-29T00:33:55;10.60;17.50
578;DHT22;275;48.492;9.214;2024-03-29T00:36:23;10.10;18.20
578;DHT22;275;48.492;9.214;2024-03-29T00:38:48;10.00;18.50
578;DHT22;275;48.492;9.214;2024-03-29T00:41:14;10.10;18.70
578;DHT22;275;48.492;9.214;2024-03-29T00:43:40;10.20;18.60
578;DHT22;275;48.492;9.214;2024-03-29T00:46:06;10.20;18.60
578;DHT22;275;48.492;9.214;2024-03-29T00:48:32;10.20;18.50
578;DHT22;275;48.492;9.214;2024-03-29T00:50:58;10.30;18.60
578;DHT22;275;48.492;9.214;2024-03-29T00:53:25;10.20;18.70
578;DHT22;275;48.492;9.214;2024-03-29T00:55:51;10.20;19.30
578;DHT22;275;48.492;9.214;2024-03-29T00:58:16;10.20;19.50
578;DHT22;275;48.492;9.214;2024-03-29T01:00:42;9.80;20.70
578;DHT22;275;48.492;9.214;2024-03-29T01:03:08;9.50;21.00
578;DHT22;275;48.492;9.214;2024-03-29T01:05:34;9.60;21.10
578;DHT22;275;48.492;9.214;2024-03-29T01:08:00;9.50;21.50
578;DHT22;275;48.492;9.214;2024-03-29T01:10:27;9.40;21.40
578;DHT22;275;48.492;9.214;2024-03-29T01:12:53;9.60;21.40
578;DHT22;275;48.492;9.214;2024-03-29T01:15:19;9.50;21.60
578;DHT22;275;48.492;9.214;2024-03-29T01:17:45;9.40;22.00
578;DHT22;275;48.492;9.214;2024-03-29T01:20:11;9.30;22.20
578;DHT22;275;48.492;9.214;2024-03-29T01:22:37;9.20;22.80
578;DHT22;275;48.492;9.214;2024-03-29T01:25:03;9.30;22.90
578;DHT22;275;48.492;9.214;2024-03-29T01:27:30;9.20;22.90
578;DHT22;275;48.492;9.214;2024-03-29T01:29:56;9.30;22.70
578;DHT22;275;48.492;9.214;2024-03-29T01:32:22;9.50;22.40
578;DHT22;275;48.492;9.214;2024-03-29T01:34:48;9.50;22.60
578;DHT22;275;48.492;9.214;2024-03-29T01:37:14;9.40;23.00
578;DHT22;275;48.492;9.214;2024-03-29T01:39:40;9.30;22.90
578;DHT22;275;48.492;9.214;2024-03-29T01:42:06;9.20;23.50
578;DHT22;275;48.492;9.214;2024-03-29T01:44:33;9.40;23.10
578;DHT22;275;48.492;9.214;2024-03-29T01:47:00;9.30;23.00
578;DHT22;275;48.492;9.214;2024-03-29T01:49:27;9.30;23.20
578;DHT22;275;48.492;9.214;2024-03-29T01:51:54;9.20;23.60
578;DHT22;275;48.492;9.214;2024-03-29T01:54:20;9.40;22.80
578;DHT22;275;48.492;9.214;2024-03-29T01:56:48;9.30;22.90
578;DHT22;275;48.492;9.214;2024-03-29T01:59:16;9.30;23.10
578;DHT22;275;48.492;9.214;2024-03-29T02:01:45;9.30;22.90
578;DHT22;275;48.492;9.214;2024-03-29T02:04:12;9.00;23.40
578;DHT22;275;48.492;9.214;2024-03-29T02:06:39;9.10;23.20
578;DHT22;275;48.492;9.214;2024-03-29T02:09:06;9.40;22.90
578;DHT22;275;48.492;9.214;2024-03-29T02:11:33;9.60;21.90
578;DHT22;275;48.492;9.214;2024-03-29T02:14:00;9.70;21.80
578;DHT22;275;48.492;9.214;2024-03-29T02:16:27;9.60;22.20
578;DHT22;275;48.492;9.214;2024-03-29T02:18:55;9.70;21.90
578;DHT22;275;48.492;9.214;2024-03-29T02:21:22;9.10;22.90
578;DHT22;275;48.492;9.214;2024-03-29T02:23:57;8.70;23.80
578;DHT22;275;48.492;9.214;2024-03-29T02:26:24;8.90;23.30
578;DHT22;275;48.492;9.214;2024-03-29T02:28:57;9.10;23.20
578;DHT22;275;48.492;9.214;2024-03-29T02:31:24;9.40;22.40
578;DHT22;275;48.492;9.214;2024-03-29T02:33:50;9.50;21.80
578;DHT22;275;48.492;9.214;2024-03-29T02:36:17;9.50;21.50
578;DHT22;275;48.492;9.214;2024-03-29T02:38:44;9.90;20.90
578;DHT22;275;48.492;9.214;2024-03-29T02:41:12;10.00;19.60
578;DHT22;275;48.492;9.214;2024-03-29T02:43:39;10.10;18.70
578;DHT22;275;48.492;9.214;2024-03-29T02:46:06;10.30;18.50
578;DHT22;275;48.492;9.214;2024-03-29T02:48:32;10.30;18.50
578;DHT22;275;48.492;9.214;2024-03-29T02:50:58;10.30;18.90
578;DHT22;275;48.492;9.214;2024-03-29T02:53:25;10.30;18.20
578;DHT22;275;48.492;9.214;2024-03-29T02:55:51;10.40;17.90
578;DHT22;275;48.492;9.214;2024-03-29T02:58:19;10.30;18.30
578;DHT22;275;48.492;9.214;2024-03-29T03:00:45;10.60;18.10
578;DHT22;275;48.492;9.214;2024-03-29T03:03:15;10.60;17.80
578;DHT22;275;48.492;9.214;2024-03-29T03:05:41;10.10;18.50
578;DHT22;275;48.492;9.214;2024-03-29T03:08:08;9.90;19.70
578;DHT22;275;48.492;9.214;2024-03-29T03:11:01;10.40;18.30
578;DHT22;275;48.492;9.214;2024-03-29T03:13:29;10.40;18.10
578;DHT22;275;48.492;9.214;2024-03-29T03:15:56;10.30;18.40
578;DHT22;275;48.492;9.214;2024-03-29T03:18:23;10.30;18.10
578;DHT22;275;48.492;9.214;2024-03-29T03:20:53;10.10;18.40
578;DHT22;275;48.492;9.214;2024-03-29T03:23:19;10.00;18.60
578;DHT22;275;48.492;9.214;2024-03-29T03:25:53;10.10;18.50
578;DHT22;275;48.492;9.214;2024-03-29T03:28:19;10.10;18.80
578;DHT22;275;48.492;9.214;2024-03-29T03:30:47;9.90;19.50
578;DHT22;275;48.492;9.214;2024-03-29T03:33:13;10.00;18.40
578;DHT22;275;48.492;9.214;2024-03-29T03:35:40;10.10;18.00
578;DHT22;275;48.492;9.214;2024-03-29T03:38:06;10.30;17.90
578;DHT22;275;48.492;9.214;2024-03-29T03:40:34;10.40;17.70
578;DHT22;275;48.492;9.214;2024-03-29T03:43:00;10.40;17.40
578;DHT22;275;48.492;9.214;2024-03-29T03:45:27;10.60;17.10
578;DHT22;275;48.492;9.214;2024-03-29T03:47:54;10.80;17.00
578;DHT22;275;48.492;9.214;2024-03-29T03:50:21;11.10;16.20
578;DHT22;275;48.492;9.214;2024-03-29T03:52:47;11.20;15.80
578;DHT22;275;48.492;9.214;2024-03-29T03:55:15;11.10;15.40
578;DHT22;275;48.492;9.214;2024-03-29T03:57:41;11.00;15.20
578;DHT22;275;48.492;9.214;2024-03-29T04:00:09;10.80;16.10
578;DHT22;275;48.492;9.214;2024-03-29T04:02:34;10.60;16.40
578;DHT22;275;48.492;9.214;2024-03-29T04:05:03;10.80;16.20
578;DHT22;275;48.492;9.214;2024-03-29T04:07:29;11.00;15.80
578;DHT22;275;48.492;9.214;2024-03-29T04:09:56;11.10;15.60
578;DHT22;275;48.492;9.214;2024-03-29T04:12:21;11.00;15.70
578;DHT22;275;48.492;9.214;2024-03-29T04:14:48;10.80;16.00
578;DHT22;275;48.492;9.214;2024-03-29T04:17:15;11.00;16.00
578;DHT22;275;48.492;9.214;2024-03-29T04:19:41;10.90;16.40
578;DHT22;275;48.492;9.214;2024-03-29T04:22:09;10.80;16.20
578;DHT22;275;48.492;9.214;2024-03-29T04:24:35;10.90;15.70
578;DHT22;275;48.492;9.214;2024-03-29T04:27:02;11.00;15.30
578;DHT22;275;48.492;9.214;2024-03-29T04:29:29;10.90;15.40
578;DHT22;275;48.492;9.214;2024-03-29T04:31:56;11.20;15.00
578;DHT22;275;48.492;9.214;2024-03-29T04:34:22;11.20;15.10
578;DHT22;275;48.492;9.214;2024-03-29T04:36:49;11.20;14.90
578;DHT22;275;48.492;9.214;2024-03-29T04:39:17;11.10;14.80
578;DHT22;275;48.492;9.214;2024-03-29T04:41:44;11.00;15.10
578;DHT22;275;48.492;9.214;2024-03-29T04:44:13;11.10;14.70
578;DHT22;275;48.492;9.214;2024-03-29T04:46:39;11.10;14.50
578;DHT22;275;48.492;9.214;2024-03-29T04:49:06;11.20;14.30
578;DHT22;275;48.492;9.214;2024-03-29T04:51:33;11.20;14.50
578;DHT22;275;48.492;9.214;2024-03-29T04:54:00;11.00;14.70
578;DHT22;275;48.492;9.214;2024-03-29T04:56:28;11.10;14.40
578;DHT22;275;48.492;9.214;2024-03-29T04:58:55;11.10;14.00
578;DHT22;275;48.492;9.214;2024-03-29T05:01:21;11.40;13.90
578;DHT22;275;48.492;9.214;2024-03-29T05:03:48;11.40;13.90
578;DHT22;275;48.492;9.214;2024-03-29T05:06:16;11.30;13.90
578;DHT22;275;48.492;9.214;2024-03-29T05:08:43;11.50;13.90
578;DHT22;275;48.492;9.214;2024-03-29T05:11:10;11.60;13.30
578;DHT22;275;48.492;9.214;2024-03-29T05:13:41;11.90;12.90
578;DHT22;275;48.492;9.214;2024-03-29T05:16:07;11.80;13.20
578;DHT22;275;48.492;9.214;2024-03-29T05:18:34;11.80;13.10
578;DHT22;275;48.492;9.214;2024-03-29T05:21:01;11.50;13.70
578;DHT22;275;48.492;9.214;2024-03-29T05:23:28;11.40;13.80
578;DHT22;275;48.492;9.214;2024-03-29T05:25:55;11.50;13.90
578;DHT22;275;48.492;9.214;2024-03-29T05:28:21;11.50;13.80
578;DHT22;275;48.492;9.214;2024-03-29T05:30:50;11.40;14.00
578;DHT22;275;48.492;9.214;2024-03-29T05:33:16;11.50;13.70
578;DHT22;275;48.492;9.214;2024-03-29T05:35:43;11.60;13.90
578;DHT22;275;48.492;9.214;2024-03-29T05:38:10;11.40;16.20
578;DHT22;275;48.492;9.214;2024-03-29T05:40:37;11.00;17.40
578;DHT22;275;48.492;9.214;2024-03-29T05:43:04;10.90;18.10
578;DHT22;275;48.492;9.214;2024-03-29T05:45:31;10.90;18.10
578;DHT22;275;48.492;9.214;2024-03-29T05:47:59;10.50;19.10
578;DHT22;275;48.492;9.214;2024-03-29T05:50:26;10.50;19.50
578;DHT22;275;48.492;9.214;2024-03-29T05:52:53;11.20;18.50
578;DHT22;275;48.492;9.214;2024-03-29T05:55:20;11.70;17.80
578;DHT22;275;48.492;9.214;2024-03-29T05:57:47;11.80;17.50
578;DHT22;275;48.492;9.214;2024-03-29T06:00:15;12.10;17.30
578;DHT22;275;48.492;9.214;2024-03-29T06:02:42;12.10;17.00
578;DHT22;275;48.492;9.214;2024-03-29T06:05:11;12.00;17.40
578;DHT22;275;48.492;9.214;2024-03-29T06:07:38;12.20;17.10
578;DHT22;275;48.492;9.214;2024-03-29T06:10:06;12.40;17.00
578;DHT22;275;48.492;9.214;2024-03-29T06:12:34;12.50;16.70
578;DHT22;275;48.492;9.214;2024-03-29T06:15:01;12.40;17.00
578;DHT22;275;48.492;9.214;2024-03-29T06:17:46;12.80;16.40
578;DHT22;275;48.492;9.214;2024-03-29T06:20:14;13.00;16.20
578;DHT22;275;48.492;9.214;2024-03-29T06:22:41;13.40;15.80
578;DHT22;275;48.492;9.214;2024-03-29T06:25:08;13.40;16.00
578;DHT22;275;48.492;9.214;2024-03-29T06:27:36;13.30;15.90
578;DHT22;275;48.492;9.214;2024-03-29T06:30:04;13.20;15.10
578;DHT22;275;48.492;9.214;2024-03-29T06:32:32;13.30;13.30
578;DHT22;275;48.492;9.214;2024-03-29T06:34:59;13.70;14.00
578;DHT22;275;48.492;9.214;2024-03-29T06:37:27;13.70;15.70
578;DHT22;275;48.492;9.214;2024-03-29T06:39:55;13.40;15.00
578;DHT22;275;48.492;9.214;2024-03-29T06:42:22;13.20;16.30
578;DHT22;275;48.492;9.214;2024-03-29T06:44:49;12.50;17.70
578;DHT22;275;48.492;9.214;2024-03-29T06:47:15;12.50;16.80
578;DHT22;275;48.492;9.214;2024-03-29T06:49:45;12.50;16.20
578;DHT22;275;48.492;9.214;2024-03-29T06:52:12;12.40;18.20
578;DHT22;275;48.492;9.214;2024-03-29T06:54:41;12.30;17.20
578;DHT22;275;48.492;9.214;2024-03-29T06:57:08;12.40;17.20
578;DHT22;275;48.492;9.214;2024-03-29T06:59:37;11.70;18.70
578;DHT22;275;48.492;9.214;2024-03-29T07:02:05;11.70;17.90
578;DHT22;275;48.492;9.214;2024-03-29T07:04:32;11.90;17.70
578;DHT22;275;48.492;9.214;2024-03-29T07:06:59;11.60;19.00
578;DHT22;275;48.492;9.214;2024-03-29T07:09:26;11.00;19.50
578;DHT22;275;48.492;9.214;2024-03-29T07:11:54;11.20;18.20
578;DHT22;275;48.492;9.214;2024-03-29T07:14:21;11.60;18.20
578;DHT22;275;48.492;9.214;2024-03-29T07:16:49;12.20;18.00
578;DHT22;275;48.492;9.214;2024-03-29T07:19:16;12.50;18.90
578;DHT22;275;48.492;9.214;2024-03-29T07:21:44;12.80;20.00
578;DHT22;275;48.492;9.214;2024-03-29T07:24:11;12.80;20.10
578;DHT22;275;48.492;9.214;2024-03-29T07:26:38;12.50;20.20
578;DHT22;275;48.492;9.214;2024-03-29T07:29:06;12.30;21.40
578;DHT22;275;48.492;9.214;2024-03-29T07:31:33;12.50;20.70
578;DHT22;275;48.492;9.214;2024-03-29T07:34:00;12.50;21.00
578;DHT22;275;48.492;9.214;2024-03-29T07:36:27;13.20;19.60
578;DHT22;275;48.492;9.214;2024-03-29T07:38:57;13.30;19.40
578;DHT22;275;48.492;9.214;2024-03-29T07:41:24;12.80;20.00
578;DHT22;275;48.492;9.214;2024-03-29T07:43:52;13.50;19.40
578;DHT22;275;48.492;9.214;2024-03-29T07:46:23;13.90;20.40
578;DHT22;275;48.492;9.214;2024-03-29T07:48:50;14.40;19.70
578;DHT22;275;48.492;9.214;2024-03-29T07:51:17;14.40;19.80
578;DHT22;275;48.492;9.214;2024-03-29T07:53:43;14.30;19.70
578;DHT22;275;48.492;9.214;2024-03-29T07:56:10;13.90;20.40
578;DHT22;275;48.492;9.214;2024-03-29T07:58:37;14.00;20.30
578;DHT22;275;48.492;9.214;2024-03-29T08:01:04;13.90;20.00
578;DHT22;275;48.492;9.214;2024-03-29T08:03:32;14.10;20.90
578;DHT22;275;48.492;9.214;2024-03-29T08:06:00;13.90;21.70
578;DHT22;275;48.492;9.214;2024-03-29T08:08:29;14.00;20.90
578;DHT22;275;48.492;9.214;2024-03-29T08:10:56;14.10;20.10
578;DHT22;275;48.492;9.214;2024-03-29T08:13:23;14.20;20.20
578;DHT22;275;48.492;9.214;2024-03-29T08:15:56;14.10;20.40
578;DHT22;275;48.492;9.214;2024-03-29T08:18:23;14.00;21.30
578;DHT22;275;48.492;9.214;2024-03-29T08:20:52;14.30;21.30
578;DHT22;275;48.492;9.214;2024-03-29T08:23:20;14.50;20.70
578;DHT22;275;48.492;9.214;2024-03-29T08:25:47;14.40;21.60
578;DHT22;275;48.492;9.214;2024-03-29T08:28:14;14.40;22.30
578;DHT22;275;48.492;9.214;2024-03-29T08:30:41;14.80;20.70
578;DHT22;275;48.492;9.214;2024-03-29T08:33:08;15.00;19.80
578;DHT22;275;48.492;9.214;2024-03-29T08:35:35;14.90;20.70
578;DHT22;275;48.492;9.214;2024-03-29T08:38:04;15.10;21.80
578;DHT22;275;48.492;9.214;2024-03-29T08:40:30;14.90;22.40
578;DHT22;275;48.492;9.214;2024-03-29T08:42:59;15.10;21.50
578;DHT22;275;48.492;9.214;2024-03-29T08:45:26;15.40;20.90
578;DHT22;275;48.492;9.214;2024-03-29T08:47:53;15.10;21.70
578;DHT22;275;48.492;9.214;2024-03-29T08:50:20;15.50;23.30
578;DHT22;275;48.492;9.214;2024-03-29T08:52:47;15.40;20.70
578;DHT22;275;48.492;9.214;2024-03-29T08:55:15;15.60;19.90
578;DHT22;275;48.492;9.214;2024-03-29T08:57:42;15.50;19.90
578;DHT22;275;48.492;9.214;2024-03-29T09:00:17;15.20;20.30
578;DHT22;275;48.492;9.214;2024-03-29T09:02:45;15.40;19.60
578;DHT22;275;48.492;9.214;2024-03-29T09:05:12;15.30;19.50
578;DHT22;275;48.492;9.214;2024-03-29T09:07:39;15.30;19.70
578;DHT22;275;48.492;9.214;2024-03-29T09:10:07;15.60;19.30
578;DHT22;275;48.492;9.214;2024-03-29T09:12:34;15.60;19.40
578;DHT22;275;48.492;9.214;2024-03-29T09:15:01;15.40;19.70
578;DHT22;275;48.492;9.214;2024-03-29T09:17:29;15.50;19.50
578;DHT22;275;48.492;9.214;2024-03-29T09:19:56;15.70;20.10
578;DHT22;275;48.492;9.214;2024-03-29T09:22:23;15.50;19.50
578;DHT22;275;48.492;9.214;2024-03-29T09:24:49;15.50;20.00
578;DHT22;275;48.492;9.214;2024-03-29T09:27:16;15.10;20.50
578;DHT22;275;48.492;9.214;2024-03-29T09:29:47;15.00;20.30
578;DHT22;275;48.492;9.214;2024-03-29T09:32:15;15.10;20.50
578;DHT22;275;48.492;9.214;2024-03-29T09:34:44;15.10;20.80
578;DHT22;275;48.492;9.214;2024-03-29T09:37:11;15.20;20.40
578;DHT22;275;48.492;9.214;2024-03-29T09:39:38;15.10;20.60
578;DHT22;275;48.492;9.214;2024-03-29T09:42:06;15.10;21.60
578;DHT22;275;48.492;9.214;2024-03-29T09:44:34;15.30;20.90
578;DHT22;275;48.492;9.214;2024-03-29T09:47:03;15.00;21.80
578;DHT22;275;48.492;9.214;2024-03-29T09:49:31;15.40;21.00
578;DHT22;275;48.492;9.214;2024-03-29T09:51:59;15.90;20.60
578;DHT22;275;48.492;9.214;2024-03-29T09:54:27;16.10;20.00
578;DHT22;275;48.492;9.214;2024-03-29T09:56:55;16.10;20.30
578;DHT22;275;48.492;9.214;2024-03-29T09:59:22;16.50;19.60
578;DHT22;275;48.492;9.214;2024-03-29T10:01:50;16.80;19.40
578;DHT22;275;48.492;9.214;2024-03-29T10:04:20;17.00;19.30
578;DHT22;275;48.492;9.214;2024-03-29T10:06:48;17.70;18.40
578;DHT22;275;48.492;9.214;2024-03-29T10:09:18;18.10;17.60
578;DHT22;275;48.492;9.214;2024-03-29T10:11:44;17.70;18.20
578;DHT22;275;48.492;9.214;2024-03-29T10:14:11;17.40;18.30
578;DHT22;275;48.492;9.214;2024-03-29T10:16:38;17.40;18.70
578;DHT22;275;48.492;9.214;2024-03-29T10:19:07;17.20;18.80
578;DHT22;275;48.492;9.214;2024-03-29T10:21:35;17.20;18.70
578;DHT22;275;48.492;9.214;2024-03-29T10:24:11;17.20;18.50
578;DHT22;275;48.492;9.214;2024-03-29T10:26:40;17.60;18.30
578;DHT22;275;48.492;9.214;2024-03-29T10:29:06;18.80;17.40
578;DHT22;275;48.492;9.214;2024-03-29T10:31:34;20.00;15.90
578;DHT22;275;48.492;9.214;2024-03-29T10:34:03;20.60;15.40
578;DHT22;275;48.492;9.214;2024-03-29T10:36:30;20.70;15.00
578;DHT22;275;48.492;9.214;2024-03-29T10:39:01;20.40;15.30
578;DHT22;275;48.492;9.214;2024-03-29T10:41:29;20.30;15.40
578;DHT22;275;48.492;9.214;2024-03-29T10:43:57;20.00;15.90
578;DHT22;275;48.492;9.214;2024-03-29T10:46:26;20.00;16.10
578;DHT22;275;48.492;9.214;2024-03-29T10:48:54;20.60;15.90
578;DHT22;275;48.492;9.214;2024-03-29T10:51:22;20.70;16.20
578;DHT22;275;48.492;9.214;2024-03-29T10:53:50;21.10;15.60
578;DHT22;275;48.492;9.214;2024-03-29T10:56:18;20.40;16.10
578;DHT22;275;48.492;9.214;2024-03-29T10:58:49;19.90;16.50
578;DHT22;275;48.492;9.214;2024-03-29T11:01:21;19.30;17.60
578;DHT22;275;48.492;9.214;2024-03-29T11:03:52;19.00;18.20
578;DHT22;275;48.492;9.214;2024-03-29T11:06:23;18.90;18.80
578;DHT22;275;48.492;9.214;2024-03-29T11:08:53;18.70;19.50
578;DHT22;275;48.492;9.214;2024-03-29T11:11:22;18.80;19.60
578;DHT22;275;48.492;9.214;2024-03-29T11:13:54;18.70;19.70
578;DHT22;275;48.492;9.214;2024-03-29T11:16:23;18.20;20.70
578;DHT22;275;48.492;9.214;2024-03-29T11:18:51;18.10;21.10
578;DHT22;275;48.492;9.214;2024-03-29T11:21:18;18.00;21.60
578;DHT22;275;48.492;9.214;2024-03-29T11:23:48;18.40;21.20
578;DHT22;275;48.492;9.214;2024-03-29T11:26:16;18.60;20.80
578;DHT22;275;48.492;9.214;2024-03-29T11:28:48;18.30;21.10
578;DHT22;275;48.492;9.214;2024-03-29T11:31:15;18.30;21.20
578;DHT22;275;48.492;9.214;2024-03-29T11:33:45;18.20;21.80
578;DHT22;275;48.492;9.214;2024-03-29T11:36:15;18.50;21.00
578;DHT22;275;48.492;9.214;2024-03-29T11:38:45;18.40;20.50
578;DHT22;275;48.492;9.214;2024-03-29T11:41:13;18.20;21.50
578;DHT22;275;48.492;9.214;2024-03-29T11:43:41;17.90;22.10
578;DHT22;275;48.492;9.214;2024-03-29T11:46:09;19.10;20.60
578;DHT22;275;48.492;9.214;2024-03-29T11:48:37;19.80;19.50
578;DHT22;275;48.492;9.214;2024-03-29T11:51:06;20.50;18.70
578;DHT22;275;48.492;9.214;2024-03-29T11:53:34;20.80;17.40
578;DHT22;275;48.492;9.214;2024-03-29T11:56:02;20.60;17.90
578;DHT22;275;48.492;9.214;2024-03-29T11:58:30;21.20;17.00
578;DHT22;275;48.492;9.214;2024-03-29T12:00:59;21.30;16.30
578;DHT22;275;48.492;9.214;2024-03-29T12:03:27;20.60;17.40
578;DHT22;275;48.492;9.214;2024-03-29T12:05:54;20.70;16.90
578;DHT22;275;48.492;9.214;2024-03-29T12:08:25;20.60;17.00
578;DHT22;275;48.492;9.214;2024-03-29T12:10:52;20.80;16.80
578;DHT22;275;48.492;9.214;2024-03-29T12:13:19;20.90;16.50
578;DHT22;275;48.492;9.214;2024-03-29T12:15:46;20.90;16.40
578;DHT22;275;48.492;9.214;2024-03-29T12:18:13;21.10;16.10
578;DHT22;275;48.492;9.214;2024-03-29T12:20:42;22.60;14.80
578;DHT22;275;48.492;9.214;2024-03-29T12:23:12;24.80;13.40
578;DHT22;275;48.492;9.214;2024-03-29T12:25:40;25.60;12.00
578;DHT22;275;48.492;9.214;2024-03-29T12:28:08;26.70;10.30
578;DHT22;275;48.492;9.214;2024-03-29T12:30:35;27.00;9.60
578;DHT22;275;48.492;9.214;2024-03-29T12:33:04;26.20;10.80
578;DHT22;275;48.492;9.214;2024-03-29T12:35:32;25.50;11.00
578;DHT22;275;48.492;9.214;2024-03-29T12:37:59;25.60;11.20
578;DHT22;275;48.492;9.214;2024-03-29T12:40:27;25.50;11.00
578;DHT22;275;48.492;9.214;2024-03-29T12:42:59;24.10;12.10
578;DHT22;275;48.492;9.214;2024-03-29T12:45:29;23.10;13.40
578;DHT22;275;48.492;9.214;2024-03-29T12:47:55;21.90;14.80
578;DHT22;275;48.492;9.214;2024-03-29T12:50:26;21.40;15.10
578;DHT22;275;48.492;9.214;2024-03-29T12:52:54;21.70;14.60
578;DHT22;275;48.492;9.214;2024-03-29T12:55:22;23.00;13.60
578;DHT22;275;48.492;9.214;2024-03-29T12:57:50;24.80;11.90
578;DHT22;275;48.492;9.214;2024-03-29T13:00:20;26.90;9.50
578;DHT22;275;48.492;9.214;2024-03-29T13:02:47;28.70;8.10
578;DHT22;275;48.492;9.214;2024-03-29T13:05:14;30.40;6.10
578;DHT22;275;48.492;9.214;2024-03-29T13:07:41;30.80;5.30
578;DHT22;275;48.492;9.214;2024-03-29T13:10:09;30.30;5.40
578;DHT22;275;48.492;9.214;2024-03-29T13:12:39;30.00;5.80
578;DHT22;275;48.492;9.214;2024-03-29T13:15:16;30.80;5.00
578;DHT22;275;48.492;9.214;2024-03-29T13:17:45;29.40;6.10
578;DHT22;275;48.492;9.214;2024-03-29T13:20:13;29.70;5.70
578;DHT22;275;48.492;9.214;2024-03-29T13:22:41;28.30;7.10
578;DHT22;275;48.492;9.214;2024-03-29T13:25:10;29.50;5.90
578;DHT22;275;48.492;9.214;2024-03-29T13:27:37;29.60;5.70
578;DHT22;275;48.492;9.214;2024-03-29T13:30:04;28.70;6.50
578;DHT22;275;48.492;9.214;2024-03-29T13:32:31;28.10;7.20
578;DHT22;275;48.492;9.214;2024-03-29T13:35:00;27.70;7.70
578;DHT22;275;48.492;9.214;2024-03-29T13:37:30;27.40;8.10
578;DHT22;275;48.492;9.214;2024-03-29T13:39:57;25.50;9.50
578;DHT22;275;48.492;9.214;2024-03-29T13:42:24;24.00;11.20
578;DHT22;275;48.492;9.214;2024-03-29T13:44:51;24.40;10.50
578;DHT22;275;48.492;9.214;2024-03-29T13:47:19;23.30;11.80
578;DHT22;275;48.492;9.214;2024-03-29T13:49:45;23.90;11.20
578;DHT22;275;48.492;9.214;2024-03-29T13:52:14;23.80;11.50
578;DHT22;275;48.492;9.214;2024-03-29T13:54:43;24.10;10.80
578;DHT22;275;48.492;9.214;2024-03-29T13:57:12;23.30;11.80
578;DHT22;275;48.492;9.214;2024-03-29T13:59:38;22.60;12.60
578;DHT22;275;48.492;9.214;2024-03-29T14:02:08;22.50;12.60
578;DHT22;275;48.492;9.214;2024-03-29T14:04:35;22.20;13.00
578;DHT22;275;48.492;9.214;2024-03-29T14:07:02;21.90;13.80
578;DHT22;275;48.492;9.214;2024-03-29T14:09:34;21.60;13.90
578;DHT22;275;48.492;9.214;2024-03-29T14:12:01;21.40;14.40
578;DHT22;275;48.492;9.214;2024-03-29T14:14:28;19.90;16.00
578;DHT22;275;48.492;9.214;2024-03-29T14:16:55;19.80;15.90
578;DHT22;275;48.492;9.214;2024-03-29T14:19:22;20.20;15.60
578;DHT22;275;48.492;9.214;2024-03-29T14:21:49;20.10;15.80
578;DHT22;275;48.492;9.214;2024-03-29T14:24:16;19.40;16.40
578;DHT22;275;48.492;9.214;2024-03-29T14:26:44;19.10;17.20
578;DHT22;275;48.492;9.214;2024-03-29T14:29:12;19.20;17.30
578;DHT22;275;48.492;9.214;2024-03-29T14:31:40;19.90;16.00
578;DHT22;275;48.492;9.214;2024-03-29T14:34:10;20.40;15.60
578;DHT22;275;48.492;9.214;2024-03-29T14:36:36;19.90;16.20
578;DHT22;275;48.492;9.214;2024-03-29T14:39:03;20.10;15.70
578;DHT22;275;48.492;9.214;2024-03-29T14:41:30;20.10;15.90
578;DHT22;275;48.492;9.214;2024-03-29T14:44:00;20.50;15.40
578;DHT22;275;48.492;9.214;2024-03-29T14:46:27;20.00;15.90
578;DHT22;275;48.492;9.214;2024-03-29T14:48:54;20.40;15.40
578;DHT22;275;48.492;9.214;2024-03-29T14:51:21;20.90;15.00
578;DHT22;275;48.492;9.214;2024-03-29T14:53:48;20.10;15.60
578;DHT22;275;48.492;9.214;2024-03-29T14:56:15;19.80;16.20
578;DHT22;275;48.492;9.214;2024-03-29T14:58:42;20.70;15.40
578;DHT22;275;48.492;9.214;2024-03-29T15:01:10;20.80;15.20
578;DHT22;275;48.492;9.214;2024-03-29T15:03:36;20.20;16.20
578;DHT22;275;48.492;9.214;2024-03-29T15:06:04;20.30;15.20
578;DHT22;275;48.492;9.214;2024-03-29T15:08:31;20.10;16.00
578;DHT22;275;48.492;9.214;2024-03-29T15:10:58;20.10;16.10
578;DHT22;275;48.492;9.214;2024-03-29T15:13:25;20.70;15.30
578;DHT22;275;48.492;9.214;2024-03-29T15:15:55;20.70;15.20
578;DHT22;275;48.492;9.214;2024-03-29T15:18:24;20.00;15.80
578;DHT22;275;48.492;9.214;2024-03-29T15:20:54;20.10;16.90
578;DHT22;275;48.492;9.214;2024-03-29T15:23:21;20.00;16.70
578;DHT22;275;48.492;9.214;2024-03-29T15:25:50;19.60;17.80
578;DHT22;275;48.492;9.214;2024-03-29T15:28:17;19.90;17.00
578;DHT22;275;48.492;9.214;2024-03-29T15:31:08;20.00;16.90
578;DHT22;275;48.492;9.214;2024-03-29T15:33:36;19.60;16.80
578;DHT22;275;48.492;9.214;2024-03-29T15:36:03;19.30;17.30
578;DHT22;275;48.492;9.214;2024-03-29T15:38:30;19.30;17.10
578;DHT22;275;48.492;9.214;2024-03-29T15:40:57;19.60;17.10
578;DHT22;275;48.492;9.214;2024-03-29T15:43:24;20.10;16.50
578;DHT22;275;48.492;9.214;2024-03-29T15:45:51;20.50;15.80
578;DHT22;275;48.492;9.214;2024-03-29T15:48:18;20.60;15.60
578;DHT22;275;48.492;9.214;2024-03-29T15:50:46;20.70;15.50
578;DHT22;275;48.492;9.214;2024-03-29T15:53:13;21.00;15.30
578;DHT22;275;48.492;9.214;2024-03-29T15:55:41;20.20;15.60
578;DHT22;275;48.492;9.214;2024-03-29T15:58:08;19.90;16.00
578;DHT22;275;48.492;9.214;2024-03-29T16:00:35;19.90;16.00
578;DHT22;275;48.492;9.214;2024-03-29T16:03:08;20.20;15.80
578;DHT22;275;48.492;9.214;2024-03-29T16:05:35;20.30;15.80
578;DHT22;275;48.492;9.214;2024-03-29T16:08:04;20.30;15.70
578;DHT22;275;48.492;9.214;2024-03-29T16:10:30;20.40;15.30
578;DHT22;275;48.492;9.214;2024-03-29T16:12:57;20.40;15.30
578;DHT22;275;48.492;9.214;2024-03-29T16:15:24;19.90;15.60
578;DHT22;275;48.492;9.214;2024-03-29T16:17:51;19.80;15.90
578;DHT22;275;48.492;9.214;2024-03-29T16:20:18;19.70;16.20
578;DHT22;275;48.492;9.214;2024-03-29T16:22:44;19.70;16.00
578;DHT22;275;48.492;9.214;2024-03-29T16:25:13;19.60;16.20
578;DHT22;275;48.492;9.214;2024-03-29T16:27:38;19.50;16.40
578;DHT22;275;48.492;9.214;2024-03-29T16:30:06;20.00;15.90
578;DHT22;275;48.492;9.214;2024-03-29T16:32:32;19.90;16.10
578;DHT22;275;48.492;9.214;2024-03-29T16:35:00;19.30;16.80
578;DHT22;275;48.492;9.214;2024-03-29T16:37:26;19.10;17.30
578;DHT22;275;48.492;9.214;2024-03-29T16:39:53;18.70;17.90